sensor_id;sensor_type;location;lat;lon;timestamp;pressure;altitude;pressure_sealevel;temperature;humidity
75699;BME280;64313;51.018;13.742;2024-03-02T00:00:14;98643.22;;;8.97;83.14
75699;BME280;64313;51.018;13.742;2024-03-02T00:02:43;98636.06;;;8.97;82.92
75699;BME280;64313;51.018;13.742;2024-03-02T00:05:17;98631.53;;;8.98;83.15
75699;BME280;64313;51.018;13.742;2024-03-02T00:07:44;98636.84;;;8.98;82.82
75699;BME280;64313;51.018;13.742;2024-03-02T00:10:11;98626.81;;;9.00;83.18
75699;BME280;64313;51.018;13.742;2024-03-02T00:12:39;98627.59;;;9.00;82.66
75699;BME280;64313;51.018;13.742;2024-03-02T00:15:07;98622.28;;;9.00;83.11
75699;BME280;64313;51.018;13.742;2024-03-02T00:17:43;98631.06;;;9.01;82.98
75699;BME280;64313;51.018;13.742;2024-03-02T00:20:09;98629.22;;;9.01;82.77
75699;BME280;64313;51.018;13.742;2024-03-02T00:22:35;98634.56;;;9.01;83.27
75699;BME280;64313;51.018;13.742;2024-03-02T00:25:03;98630.28;;;9.00;83.23
75699;BME280;64313;51.018;13.742;2024-03-02T00:27:28;98623.91;;;9.01;82.87
75699;BME280;64313;51.018;13.742;2024-03-02T00:29:54;98624.75;;;9.02;83.06
75699;BME280;64313;51.018;13.742;2024-03-02T00:32:19;98627.59;;;9.00;83.10
75699;BME280;64313;51.018;13.742;2024-03-02T00:34:44;98627.41;;;9.02;83.34
75699;BME280;64313;51.018;13.742;2024-03-02T00:37:10;98631.69;;;9.03;83.05
75699;BME280;64313;51.018;13.742;2024-03-02T00:39:36;98629.22;;;9.01;83.35
75699;BME280;64313;51.018;13.742;2024-03-02T00:42:02;98627.41;;;9.02;83.15
75699;BME280;64313;51.018;13.742;2024-03-02T00:44:28;98638.06;;;9.02;82.51
75699;BME280;64313;51.018;13.742;2024-03-02T00:46:59;98633.75;;;9.01;82.63
75699;BME280;64313;51.018;13.742;2024-03-02T00:49:25;98629.47;;;9.00;82.76
75699;BME280;64313;51.018;13.742;2024-03-02T00:51:52;98632.72;;;9.02;82.72
75699;BME280;64313;51.018;13.742;2024-03-02T00:54:23;98633.53;;;9.02;82.77
75699;BME280;64313;51.018;13.742;2024-03-02T00:56:50;98634.34;;;9.03;83.02
75699;BME280;64313;51.018;13.742;2024-03-02T00:59:15;98638.06;;;9.02;82.61
75699;BME280;64313;51.018;13.742;2024-03-02T01:01:40;98640.91;;;9.00;82.83
75699;BME280;64313;51.018;13.742;2024-03-02T01:04:07;98638.06;;;9.02;82.64
75699;BME280;64313;51.018;13.742;2024-03-02T01:06:32;98632.94;;;9.00;82.95
75699;BME280;64313;51.018;13.742;2024-03-02T01:08:58;98638.06;;;9.02;82.87
75699;BME280;64313;51.018;13.742;2024-03-02T01:11:23;98631.06;;;9.01;83.17
75699;BME280;64313;51.018;13.742;2024-03-02T01:13:48;98626.00;;;8.99;83.06
75699;BME280;64313;51.018;13.742;2024-03-02T01:16:14;98617.22;;;8.99;83.39
75699;BME280;64313;51.018;13.742;2024-03-02T01:18:41;98623.34;;;8.99;83.45
75699;BME280;64313;51.018;13.742;2024-03-02T01:21:07;98623.56;;;8.98;83.27
75699;BME280;64313;51.018;13.742;2024-03-02T01:23:32;98628.88;;;8.98;83.37
75699;BME280;64313;51.018;13.742;2024-03-02T01:25:58;98623.78;;;8.96;83.60
75699;BME280;64313;51.018;13.742;2024-03-02T01:28:23;98623.78;;;8.96;83.82
75699;BME280;64313;51.018;13.742;2024-03-02T01:30:49;98633.00;;;8.93;83.21
75699;BME280;64313;51.018;13.742;2024-03-02T01:33:15;98633.00;;;8.93;83.67
75699;BME280;64313;51.018;13.742;2024-03-02T01:35:40;98626.06;;;8.92;83.20
75699;BME280;64313;51.018;13.742;2024-03-02T01:38:08;98627.13;;;8.91;83.60
75699;BME280;64313;51.018;13.742;2024-03-02T01:40:37;98628.72;;;8.92;83.41
75699;BME280;64313;51.018;13.742;2024-03-02T01:43:06;98630.59;;;8.92;83.25
75699;BME280;64313;51.018;13.742;2024-03-02T01:45:32;98635.91;;;8.92;83.68
75699;BME280;64313;51.018;13.742;2024-03-02T01:47:58;98627.13;;;8.91;83.55
75699;BME280;64313;51.018;13.742;2024-03-02T01:50:28;98632.66;;;8.90;83.46
75699;BME280;64313;51.018;13.742;2024-03-02T01:52:55;98631.84;;;8.89;83.44
75699;BME280;64313;51.018;13.742;2024-03-02T01:55:20;98624.88;;;8.88;83.67
75699;BME280;64313;51.018;13.742;2024-03-02T01:57:46;98624.06;;;8.88;83.14
75699;BME280;64313;51.018;13.742;2024-03-02T02:00:14;98613.44;;;8.88;83.72
75699;BME280;64313;51.018;13.742;2024-03-02T02:02:40;98614.47;;;8.87;83.49
75699;BME280;64313;51.018;13.742;2024-03-02T02:05:06;98616.09;;;8.88;83.45
75699;BME280;64313;51.018;13.742;2024-03-02T02:07:31;98612.44;;;8.89;83.49
75699;BME280;64313;51.018;13.742;2024-03-02T02:09:57;98609.78;;;8.89;83.19
75699;BME280;64313;51.018;13.742;2024-03-02T02:12:25;98607.13;;;8.89;83.55
75699;BME280;64313;51.018;13.742;2024-03-02T02:14:50;98600.16;;;8.88;83.23
75699;BME280;64313;51.018;13.742;2024-03-02T02:17:16;98606.28;;;8.88;83.17
75699;BME280;64313;51.018;13.742;2024-03-02T02:19:42;98602.81;;;8.88;83.61
75699;BME280;64313;51.018;13.742;2024-03-02T02:22:08;98609.16;;;8.87;83.06
75699;BME280;64313;51.018;13.742;2024-03-02T02:24:33;98617.13;;;8.87;82.93
75699;BME280;64313;51.018;13.742;2024-03-02T02:26:58;98616.09;;;8.88;83.39
75699;BME280;64313;51.018;13.742;2024-03-02T02:29:23;98618.75;;;8.88;83.22
75699;BME280;64313;51.018;13.742;2024-03-02T02:31:49;98621.41;;;8.88;83.00
75699;BME280;64313;51.018;13.742;2024-03-02T02:34:14;98609.16;;;8.87;83.36
75699;BME280;64313;51.018;13.742;2024-03-02T02:36:41;98614.47;;;8.87;82.87
75699;BME280;64313;51.018;13.742;2024-03-02T02:39:08;98605.69;;;8.86;83.24
75699;BME280;64313;51.018;13.742;2024-03-02T02:41:35;98617.38;;;8.85;83.48
75699;BME280;64313;51.018;13.742;2024-03-02T02:44:01;98614.94;;;8.84;83.10
75699;BME280;64313;51.018;13.742;2024-03-02T02:46:26;98615.75;;;8.84;83.25
75699;BME280;64313;51.018;13.742;2024-03-02T02:48:51;98608.00;;;8.83;83.68
75699;BME280;64313;51.018;13.742;2024-03-02T02:51:18;98603.69;;;8.82;83.31
75699;BME280;64313;51.018;13.742;2024-03-02T02:53:43;98601.88;;;8.82;83.52
75699;BME280;64313;51.018;13.742;2024-03-02T02:56:10;98604.53;;;8.82;83.90
75699;BME280;64313;51.018;13.742;2024-03-02T02:58:35;98609.25;;;8.80;83.65
75699;BME280;64313;51.018;13.742;2024-03-02T03:01:01;98606.59;;;8.80;83.90
75699;BME280;64313;51.018;13.742;2024-03-02T03:03:26;98602.09;;;8.81;83.86
75699;BME280;64313;51.018;13.742;2024-03-02T03:05:51;98619.06;;;8.80;84.14
75699;BME280;64313;51.018;13.742;2024-03-02T03:08:17;98608.44;;;8.80;83.69
75699;BME280;64313;51.018;13.742;2024-03-02T03:10:42;98604.97;;;8.79;84.18
75699;BME280;64313;51.018;13.742;2024-03-02T03:13:08;98603.34;;;8.78;84.20
75699;BME280;64313;51.018;13.742;2024-03-02T03:15:36;98600.69;;;8.78;83.98
75699;BME280;64313;51.018;13.742;2024-03-02T03:18:05;98603.34;;;8.78;84.06
75699;BME280;64313;51.018;13.742;2024-03-02T03:20:30;98605.19;;;8.78;83.65
75699;BME280;64313;51.018;13.742;2024-03-02T03:22:56;98606.25;;;8.77;83.53
75699;BME280;64313;51.018;13.742;2024-03-02T03:25:22;98605.44;;;8.76;83.69
75699;BME280;64313;51.018;13.742;2024-03-02T03:27:47;98613.41;;;8.76;83.80
75699;BME280;64313;51.018;13.742;2024-03-02T03:30:13;98603.78;;;8.75;84.09
75699;BME280;64313;51.018;13.742;2024-03-02T03:32:38;98597.06;;;8.73;83.79
75699;BME280;64313;51.018;13.742;2024-03-02T03:35:04;98602.41;;;8.73;83.67
75699;BME280;64313;51.018;13.742;2024-03-02T03:37:30;98604.47;;;8.71;83.87
75699;BME280;64313;51.018;13.742;2024-03-02T03:40:02;98606.53;;;8.68;84.28
75699;BME280;64313;51.018;13.742;2024-03-02T03:42:28;98601.19;;;8.68;84.18
75699;BME280;64313;51.018;13.742;2024-03-02T03:44:53;98602.00;;;8.69;83.78
75699;BME280;64313;51.018;13.742;2024-03-02T03:47:18;98600.41;;;8.68;83.91
75699;BME280;64313;51.018;13.742;2024-03-02T03:49:45;98604.66;;;8.69;83.70
75699;BME280;64313;51.018;13.742;2024-03-02T03:52:10;98591.38;;;8.69;83.88
75699;BME280;64313;51.018;13.742;2024-03-02T03:54:35;98583.41;;;8.69;83.58
75699;BME280;64313;51.018;13.742;2024-03-02T03:57:03;98586.06;;;8.69;83.60
75699;BME280;64313;51.018;13.742;2024-03-02T03:59:28;98590.56;;;8.68;83.76
75699;BME280;64313;51.018;13.742;2024-03-02T04:01:54;98595.09;;;8.68;84.20
75699;BME280;64313;51.018;13.742;2024-03-02T04:04:19;98598.78;;;8.67;84.14
75699;BME280;64313;51.018;13.742;2024-03-02T04:06:44;98594.72;;;8.64;83.88
75699;BME280;64313;51.018;13.742;2024-03-02T04:09:10;98608.81;;;8.65;83.75
75699;BME280;64313;51.018;13.742;2024-03-02T04:11:35;98614.13;;;8.65;83.99
75699;BME280;64313;51.018;13.742;2024-03-02T04:14:00;98604.56;;;8.64;83.93
75699;BME280;64313;51.018;13.742;2024-03-02T04:16:26;98600.25;;;8.63;83.36
75699;BME280;64313;51.018;13.742;2024-03-02T04:18:51;98608.22;;;8.63;83.57
75699;BME280;64313;51.018;13.742;2024-03-02T04:21:16;98609.25;;;8.62;83.38
75699;BME280;64313;51.018;13.742;2024-03-02T04:23:42;98611.91;;;8.62;83.45
75699;BME280;64313;51.018;13.742;2024-03-02T04:26:07;98599.66;;;8.61;83.69
75699;BME280;64313;51.018;13.742;2024-03-02T04:28:32;98608.69;;;8.60;83.35
75699;BME280;64313;51.018;13.742;2024-03-02T04:30:58;98605.22;;;8.59;83.39
75699;BME280;64313;51.018;13.742;2024-03-02T04:33:23;98605.44;;;8.58;83.91
75699;BME280;64313;51.018;13.742;2024-03-02T04:35:48;98605.44;;;8.58;83.89
75699;BME280;64313;51.018;13.742;2024-03-02T04:38:14;98612.59;;;8.57;83.58
75699;BME280;64313;51.018;13.742;2024-03-02T04:40:39;98612.78;;;8.56;84.11
75699;BME280;64313;51.018;13.742;2024-03-02T04:43:04;98613.84;;;8.55;83.88
75699;BME280;64313;51.018;13.742;2024-03-02T04:45:30;98632.44;;;8.55;83.79
75699;BME280;64313;51.018;13.742;2024-03-02T04:47:55;98633.47;;;8.54;84.18
75699;BME280;64313;51.018;13.742;2024-03-02T04:50:20;98634.50;;;8.53;83.69
75699;BME280;64313;51.018;13.742;2024-03-02T04:52:46;98637.41;;;8.51;83.96
75699;BME280;64313;51.018;13.742;2024-03-02T04:55:11;98634.75;;;8.51;84.05
75699;BME280;64313;51.018;13.742;2024-03-02T04:57:55;98640.06;;;8.51;83.92
75699;BME280;64313;51.018;13.742;2024-03-02T05:00:21;98646.19;;;8.52;83.84
75699;BME280;64313;51.018;13.742;2024-03-02T05:02:46;98652.31;;;8.52;84.46
75699;BME280;64313;51.018;13.742;2024-03-02T05:05:13;98647.00;;;8.52;84.21
75699;BME280;64313;51.018;13.742;2024-03-02T05:07:40;98655.19;;;8.51;84.24
75699;BME280;64313;51.018;13.742;2024-03-02T05:10:07;98663.34;;;8.49;84.76
75699;BME280;64313;51.018;13.742;2024-03-02T05:12:33;98664.38;;;8.48;84.23
75699;BME280;64313;51.018;13.742;2024-03-02T05:15:08;98659.88;;;8.49;84.80
75699;BME280;64313;51.018;13.742;2024-03-02T05:17:33;98662.53;;;8.49;84.35
75699;BME280;64313;51.018;13.742;2024-03-02T05:19:58;98667.03;;;8.48;84.54
75699;BME280;64313;51.018;13.742;2024-03-02T05:22:24;98671.56;;;8.48;84.49
75699;BME280;64313;51.018;13.742;2024-03-02T05:24:49;98672.38;;;8.48;84.69
75699;BME280;64313;51.018;13.742;2024-03-02T05:27:14;98669.94;;;8.47;84.77
75699;BME280;64313;51.018;13.742;2024-03-02T05:29:40;98672.38;;;8.48;84.34
75699;BME280;64313;51.018;13.742;2024-03-02T05:32:05;98675.03;;;8.48;84.64
75699;BME280;64313;51.018;13.742;2024-03-02T05:34:31;98673.97;;;8.49;84.60
75699;BME280;64313;51.018;13.742;2024-03-02T05:36:58;98685.41;;;8.50;84.17
75699;BME280;64313;51.018;13.742;2024-03-02T05:39:23;98679.09;;;8.51;84.56
75699;BME280;64313;51.018;13.742;2024-03-02T05:41:49;98690.53;;;8.51;84.46
75699;BME280;64313;51.018;13.742;2024-03-02T05:44:14;98681.75;;;8.51;84.36
75699;BME280;64313;51.018;13.742;2024-03-02T05:46:41;98691.56;;;8.50;84.11
75699;BME280;64313;51.018;13.742;2024-03-02T05:49:23;98697.91;;;8.49;84.41
75699;BME280;64313;51.018;13.742;2024-03-02T05:51:56;98693.84;;;8.47;84.41
75699;BME280;64313;51.018;13.742;2024-03-02T05:54:21;98702.63;;;8.47;84.06
75699;BME280;64313;51.018;13.742;2024-03-02T05:56:47;98708.16;;;8.46;84.36
75699;BME280;64313;51.018;13.742;2024-03-02T05:59:12;98708.97;;;8.46;84.33
75699;BME280;64313;51.018;13.742;2024-03-02T06:01:43;98711.84;;;8.45;84.27
75699;BME280;64313;51.018;13.742;2024-03-02T06:04:11;98710.00;;;8.45;84.55
75699;BME280;64313;51.018;13.742;2024-03-02T06:06:37;98711.84;;;8.45;84.40
75699;BME280;64313;51.018;13.742;2024-03-02T06:09:03;98722.50;;;8.45;84.77
75699;BME280;64313;51.018;13.742;2024-03-02T06:11:41;98725.16;;;8.45;84.13
75699;BME280;64313;51.018;13.742;2024-03-02T06:14:07;98735.53;;;8.46;84.20
75699;BME280;64313;51.018;13.742;2024-03-02T06:16:33;98731.25;;;8.45;83.73
75699;BME280;64313;51.018;13.742;2024-03-02T06:18:59;98739.00;;;8.47;84.37
75699;BME280;64313;51.018;13.742;2024-03-02T06:21:25;98738.78;;;8.48;83.96
75699;BME280;64313;51.018;13.742;2024-03-02T06:23:50;98733.47;;;8.48;84.15
75699;BME280;64313;51.018;13.742;2024-03-02T06:26:16;98723.88;;;8.47;84.17
75699;BME280;64313;51.018;13.742;2024-03-02T06:28:41;98733.47;;;8.48;84.14
75699;BME280;64313;51.018;13.742;2024-03-02T06:31:06;98732.66;;;8.48;84.46
75699;BME280;64313;51.018;13.742;2024-03-02T06:33:32;98733.47;;;8.48;83.94
75699;BME280;64313;51.018;13.742;2024-03-02T06:35:57;98736.94;;;8.49;83.99
75699;BME280;64313;51.018;13.742;2024-03-02T06:38:22;98738.78;;;8.48;83.67
75699;BME280;64313;51.018;13.742;2024-03-02T06:40:48;98743.06;;;8.49;83.61
75699;BME280;64313;51.018;13.742;2024-03-02T06:43:13;98741.44;;;8.48;83.92
75699;BME280;64313;51.018;13.742;2024-03-02T06:45:38;98740.41;;;8.49;83.84
75699;BME280;64313;51.018;13.742;2024-03-02T06:48:04;98746.53;;;8.50;84.04
75699;BME280;64313;51.018;13.742;2024-03-02T06:50:30;98752.88;;;8.49;84.16
75699;BME280;64313;51.018;13.742;2024-03-02T06:52:55;98762.47;;;8.50;84.28
75699;BME280;64313;51.018;13.742;2024-03-02T06:55:23;98768.63;;;8.50;84.25
75699;BME280;64313;51.018;13.742;2024-03-02T06:57:52;98769.63;;;8.49;83.75
75699;BME280;64313;51.018;13.742;2024-03-02T07:00:18;98769.88;;;8.48;84.44
75699;BME280;64313;51.018;13.742;2024-03-02T07:02:45;98773.31;;;8.48;83.84
75699;BME280;64313;51.018;13.742;2024-03-02T07:05:10;98771.94;;;8.46;84.52
75699;BME280;64313;51.018;13.742;2024-03-02T07:07:36;98773.78;;;8.45;84.11
75699;BME280;64313;51.018;13.742;2024-03-02T07:10:05;98777.47;;;8.44;84.32
75699;BME280;64313;51.018;13.742;2024-03-02T07:12:32;98781.94;;;8.44;83.99
75699;BME280;64313;51.018;13.742;2024-03-02T07:14:58;98777.66;;;8.43;84.50
75699;BME280;64313;51.018;13.742;2024-03-02T07:17:29;98778.47;;;8.43;84.25
75699;BME280;64313;51.018;13.742;2024-03-02T07:19:55;98779.50;;;8.42;84.23
75699;BME280;64313;51.018;13.742;2024-03-02T07:22:21;98778.47;;;8.43;84.11
75699;BME280;64313;51.018;13.742;2024-03-02T07:24:46;98776.63;;;8.44;84.22
75699;BME280;64313;51.018;13.742;2024-03-02T07:27:12;98777.47;;;8.44;83.58
75699;BME280;64313;51.018;13.742;2024-03-02T07:29:38;98787.06;;;8.45;83.21
75699;BME280;64313;51.018;13.742;2024-03-02T07:32:05;98787.06;;;8.45;83.73
75699;BME280;64313;51.018;13.742;2024-03-02T07:34:30;98781.53;;;8.47;83.69
75699;BME280;64313;51.018;13.742;2024-03-02T07:36:55;98779.69;;;8.47;83.78
75699;BME280;64313;51.018;13.742;2024-03-02T07:39:21;98785.81;;;8.48;83.34
75699;BME280;64313;51.018;13.742;2024-03-02T07:41:46;98791.69;;;8.50;84.21
75699;BME280;64313;51.018;13.742;2024-03-02T07:44:12;98799.69;;;8.50;84.02
75699;BME280;64313;51.018;13.742;2024-03-02T07:46:43;98801.31;;;8.51;84.07
75699;BME280;64313;51.018;13.742;2024-03-02T07:49:09;98805.84;;;8.50;83.54
75699;BME280;64313;51.018;13.742;2024-03-02T07:51:34;98806.63;;;8.51;83.68
75699;BME280;64313;51.018;13.742;2024-03-02T07:54:00;98805.59;;;8.52;83.19
75699;BME280;64313;51.018;13.742;2024-03-02T07:56:25;98809.06;;;8.52;83.04
75699;BME280;64313;51.018;13.742;2024-03-02T07:58:51;98817.84;;;8.53;83.22
75699;BME280;64313;51.018;13.742;2024-03-02T08:01:16;98820.50;;;8.53;82.96
75699;BME280;64313;51.018;13.742;2024-03-02T08:03:43;98822.94;;;8.54;82.93
75699;BME280;64313;51.018;13.742;2024-03-02T08:06:08;98824.56;;;8.55;83.31
75699;BME280;64313;51.018;13.742;2024-03-02T08:08:33;98824.56;;;8.55;82.86
75699;BME280;64313;51.018;13.742;2024-03-02T08:10:58;98824.56;;;8.55;82.98
75699;BME280;64313;51.018;13.742;2024-03-02T08:13:24;98825.38;;;8.56;83.55
75699;BME280;64313;51.018;13.742;2024-03-02T08:15:49;98830.69;;;8.56;83.31
75699;BME280;64313;51.018;13.742;2024-03-02T08:18:15;98824.38;;;8.57;83.11
75699;BME280;64313;51.018;13.742;2024-03-02T08:20:40;98828.66;;;8.58;83.33
75699;BME280;64313;51.018;13.742;2024-03-02T08:23:06;98832.13;;;8.58;82.99
75699;BME280;64313;51.018;13.742;2024-03-02T08:25:31;98833.97;;;8.58;82.94
75699;BME280;64313;51.018;13.742;2024-03-02T08:27:58;98832.72;;;8.60;83.33
75699;BME280;64313;51.018;13.742;2024-03-02T08:30:23;98839.88;;;8.60;82.79
75699;BME280;64313;51.018;13.742;2024-03-02T08:32:48;98838.84;;;8.61;83.26
75699;BME280;64313;51.018;13.742;2024-03-02T08:35:14;98848.44;;;8.62;83.62
75699;BME280;64313;51.018;13.742;2024-03-02T08:37:41;98851.09;;;8.62;83.66
75699;BME280;64313;51.018;13.742;2024-03-02T08:40:07;98851.91;;;8.62;83.15
75699;BME280;64313;51.018;13.742;2024-03-02T08:42:33;98845.59;;;8.63;83.06
75699;BME280;64313;51.018;13.742;2024-03-02T08:44:58;98855.19;;;8.64;83.23
75699;BME280;64313;51.018;13.742;2024-03-02T08:47:26;98855.78;;;8.66;83.19
75699;BME280;64313;51.018;13.742;2024-03-02T08:49:51;98847.56;;;8.68;83.24
75699;BME280;64313;51.018;13.742;2024-03-02T08:52:17;98848.38;;;8.68;82.61
75699;BME280;64313;51.018;13.742;2024-03-02T08:54:43;98849.81;;;8.71;82.69
75699;BME280;64313;51.018;13.742;2024-03-02T08:57:08;98835.50;;;8.72;83.06
75699;BME280;64313;51.018;13.742;2024-03-02T08:59:34;98839.53;;;8.75;82.49
75699;BME280;64313;51.018;13.742;2024-03-02T09:01:59;98834.63;;;8.78;83.35
75699;BME280;64313;51.018;13.742;2024-03-02T09:04:24;98831.75;;;8.80;83.46
75699;BME280;64313;51.018;13.742;2024-03-02T09:06:50;98838.25;;;8.84;83.22
75699;BME280;64313;51.018;13.742;2024-03-02T09:09:15;98837.81;;;8.87;83.38
75699;BME280;64313;51.018;13.742;2024-03-02T09:11:41;98838.19;;;8.90;82.79
75699;BME280;64313;51.018;13.742;2024-03-02T09:14:06;98835.91;;;8.94;82.54
75699;BME280;64313;51.018;13.742;2024-03-02T09:16:31;98838.97;;;8.98;82.84
75699;BME280;64313;51.018;13.742;2024-03-02T09:18:57;98836.88;;;9.00;82.26
75699;BME280;64313;51.018;13.742;2024-03-02T09:21:23;98845.03;;;9.05;82.26
75699;BME280;64313;51.018;13.742;2024-03-02T09:23:48;98847.22;;;9.08;81.83
75699;BME280;64313;51.018;13.742;2024-03-02T09:26:14;98848.66;;;9.10;82.04
75699;BME280;64313;51.018;13.742;2024-03-02T09:28:43;98848.19;;;9.13;81.73
75699;BME280;64313;51.018;13.742;2024-03-02T09:31:08;98853.09;;;9.16;81.11
75699;BME280;64313;51.018;13.742;2024-03-02T09:33:33;98859.81;;;9.19;81.62
75699;BME280;64313;51.018;13.742;2024-03-02T09:35:58;98863.91;;;9.21;81.17
75699;BME280;64313;51.018;13.742;2024-03-02T09:38:24;98857.53;;;9.22;81.00
75699;BME280;64313;51.018;13.742;2024-03-02T09:40:49;98866.09;;;9.25;80.98
75699;BME280;64313;51.018;13.742;2024-03-02T09:43:14;98866.69;;;9.27;80.01
75699;BME280;64313;51.018;13.742;2024-03-02T09:45:40;98870.16;;;9.27;80.34
75699;BME280;64313;51.018;13.742;2024-03-02T09:48:06;98873.44;;;9.29;80.28
75699;BME280;64313;51.018;13.742;2024-03-02T09:50:32;98869.75;;;9.30;80.18
75699;BME280;64313;51.018;13.742;2024-03-02T09:52:58;98872.41;;;9.30;79.86
75699;BME280;64313;51.018;13.742;2024-03-02T09:55:23;98868.69;;;9.31;79.88
75699;BME280;64313;51.018;13.742;2024-03-02T09:57:50;98866.03;;;9.31;79.94
75699;BME280;64313;51.018;13.742;2024-03-02T10:00:16;98871.38;;;9.31;79.79
75699;BME280;64313;51.018;13.742;2024-03-02T10:02:42;98864.41;;;9.30;79.34
75699;BME280;64313;51.018;13.742;2024-03-02T10:05:11;98862.34;;;9.32;79.77
75699;BME280;64313;51.018;13.742;2024-03-02T10:07:39;98862.34;;;9.32;79.46
75699;BME280;64313;51.018;13.742;2024-03-02T10:10:13;98858.66;;;9.33;79.61
75699;BME280;64313;51.018;13.742;2024-03-02T10:12:39;98851.69;;;9.32;79.00
75699;BME280;64313;51.018;13.742;2024-03-02T10:15:04;98852.50;;;9.33;79.48
75699;BME280;64313;51.018;13.742;2024-03-02T10:17:31;98848.81;;;9.34;79.39
75699;BME280;64313;51.018;13.742;2024-03-02T10:19:56;98847.81;;;9.35;79.58
75699;BME280;64313;51.018;13.742;2024-03-02T10:22:23;98847.56;;;9.36;79.36
75699;BME280;64313;51.018;13.742;2024-03-02T10:24:49;98848.38;;;9.37;79.05
75699;BME280;64313;51.018;13.742;2024-03-02T10:27:22;98840.19;;;9.38;78.92
75699;BME280;64313;51.018;13.742;2024-03-02T10:29:48;98839.13;;;9.39;78.70
75699;BME280;64313;51.018;13.742;2024-03-02T10:32:15;98842.41;;;9.41;78.57
75699;BME280;64313;51.018;13.742;2024-03-02T10:34:43;98836.84;;;9.43;78.69
75699;BME280;64313;51.018;13.742;2024-03-02T10:37:10;98835.59;;;9.45;78.97
75699;BME280;64313;51.018;13.742;2024-03-02T10:39:37;98833.09;;;9.50;79.70
75699;BME280;64313;51.018;13.742;2024-03-02T10:42:03;98828.13;;;9.54;79.45
75699;BME280;64313;51.018;13.742;2024-03-02T10:44:30;98827.44;;;9.59;78.92
75699;BME280;64313;51.018;13.742;2024-03-02T10:46:56;98819.63;;;9.64;79.00
75699;BME280;64313;51.018;13.742;2024-03-02T10:49:26;98819.53;;;9.70;79.11
75699;BME280;64313;51.018;13.742;2024-03-02T10:51:51;98811.47;;;9.77;78.37
75699;BME280;64313;51.018;13.742;2024-03-02T10:54:16;98806.28;;;9.82;78.29
75699;BME280;64313;51.018;13.742;2024-03-02T10:56:44;98810.72;;;9.88;77.74
75699;BME280;64313;51.018;13.742;2024-03-02T11:01:58;98803.59;;;10.00;76.90
75699;BME280;64313;51.018;13.742;2024-03-02T11:04:28;98813.34;;;10.07;77.06
75699;BME280;64313;51.018;13.742;2024-03-02T11:07:00;98796.69;;;10.11;75.52
75699;BME280;64313;51.018;13.742;2024-03-02T11:09:27;98807.25;;;10.18;75.08
75699;BME280;64313;51.018;13.742;2024-03-02T11:12:09;98798.34;;;10.24;76.09
75699;BME280;64313;51.018;13.742;2024-03-02T11:14:40;98801.03;;;10.36;76.31
75699;BME280;64313;51.018;13.742;2024-03-02T11:17:09;98803.59;;;10.42;73.99
75699;BME280;64313;51.018;13.742;2024-03-02T11:19:37;98803.88;;;10.52;73.77
75699;BME280;64313;51.018;13.742;2024-03-02T11:22:04;98800.84;;;10.61;74.63
75699;BME280;64313;51.018;13.742;2024-03-02T11:24:30;98801.34;;;10.69;72.74
75699;BME280;64313;51.018;13.742;2024-03-02T11:27:00;98796.47;;;10.78;71.36
75699;BME280;64313;51.018;13.742;2024-03-02T11:32:13;98799.25;;;10.95;71.04
75699;BME280;64313;51.018;13.742;2024-03-02T11:34:41;98797.06;;;11.03;71.00
75699;BME280;64313;51.018;13.742;2024-03-02T11:37:11;98800.06;;;11.07;69.64
75699;BME280;64313;51.018;13.742;2024-03-02T11:39:37;98797.75;;;11.10;68.69
75699;BME280;64313;51.018;13.742;2024-03-02T11:42:06;98792.53;;;11.16;69.40
75699;BME280;64313;51.018;13.742;2024-03-02T11:44:33;98785.66;;;11.20;69.31
75699;BME280;64313;51.018;13.742;2024-03-02T11:47:02;98781.72;;;11.22;69.55
75699;BME280;64313;51.018;13.742;2024-03-02T11:49:41;98787.19;;;11.27;68.99
75699;BME280;64313;51.018;13.742;2024-03-02T11:52:14;98781.59;;;11.29;69.10
75699;BME280;64313;51.018;13.742;2024-03-02T11:54:41;98783.22;;;11.30;67.60
75699;BME280;64313;51.018;13.742;2024-03-02T11:57:12;98777.88;;;11.30;67.90
75699;BME280;64313;51.018;13.742;2024-03-02T11:59:39;98782.16;;;11.31;68.00
75699;BME280;64313;51.018;13.742;2024-03-02T12:02:05;98781.13;;;11.32;67.90
75699;BME280;64313;51.018;13.742;2024-03-02T12:04:30;98787.25;;;11.32;67.72
75699;BME280;64313;51.018;13.742;2024-03-02T12:07:00;98781.13;;;11.32;68.25
75699;BME280;64313;51.018;13.742;2024-03-02T12:09:28;98779.25;;;11.32;67.48
75699;BME280;64313;51.018;13.742;2024-03-02T12:12:07;98773.91;;;11.32;68.61
75699;BME280;64313;51.018;13.742;2024-03-02T12:14:34;98777.63;;;11.31;67.92
75699;BME280;64313;51.018;13.742;2024-03-02T12:17:00;98776.59;;;11.32;67.96
75699;BME280;64313;51.018;13.742;2024-03-02T12:19:26;98774.16;;;11.31;66.95
75699;BME280;64313;51.018;13.742;2024-03-02T12:21:53;98777.63;;;11.31;66.23
75699;BME280;64313;51.018;13.742;2024-03-02T12:24:18;98781.34;;;11.30;65.79
75699;BME280;64313;51.018;13.742;2024-03-02T12:26:44;98782.41;;;11.29;65.98
75699;BME280;64313;51.018;13.742;2024-03-02T12:29:10;98770.91;;;11.29;67.10
75699;BME280;64313;51.018;13.742;2024-03-02T12:31:36;98778.13;;;11.28;66.80
75699;BME280;64313;51.018;13.742;2024-03-02T12:34:03;98768.50;;;11.27;67.13
75699;BME280;64313;51.018;13.742;2024-03-02T12:36:29;98769.31;;;11.28;66.53
75699;BME280;64313;51.018;13.742;2024-03-02T12:38:54;98767.91;;;11.25;66.59
75699;BME280;64313;51.018;13.742;2024-03-02T12:41:20;98769.75;;;11.25;66.58
75699;BME280;64313;51.018;13.742;2024-03-02T12:43:45;98764.41;;;11.25;67.40
75699;BME280;64313;51.018;13.742;2024-03-02T12:46:11;98759.09;;;11.25;66.10
75699;BME280;64313;51.018;13.742;2024-03-02T12:48:37;98760.69;;;11.26;66.17
75699;BME280;64313;51.018;13.742;2024-03-02T12:51:04;98763.38;;;11.26;65.94
75699;BME280;64313;51.018;13.742;2024-03-02T12:53:30;98760.25;;;11.29;67.06
75699;BME280;64313;51.018;13.742;2024-03-02T12:55:57;98769.63;;;11.31;65.70
75699;BME280;64313;51.018;13.742;2024-03-02T12:58:23;98757.44;;;11.35;65.65